sensor_id;sensor_type;location;lat;lon;timestamp;P1;durP1;ratioP1;P2;durP2;ratioP2
59127;SDS011;44912;52.754;5.994;2023-04-06T00:00:45;12.50;;;7.57;;
59127;SDS011;44912;52.754;5.994;2023-04-06T00:03:12;9.95;;;6.43;;
59127;SDS011;44912;52.754;5.994;2023-04-06T00:05:38;9.98;;;6.72;;
59127;SDS011;44912;52.754;5.994;2023-04-06T00:08:03;12.23;;;7.35;;
59127;SDS011;44912;52.754;5.994;2023-04-06T00:10:29;10.38;;;6.85;;
59127;SDS011;44912;52.754;5.994;2023-04-06T00:12:55;12.73;;;6.90;;
59127;SDS011;44912;52.754;5.994;2023-04-06T00:15:22;11.63;;;7.43;;
59127;SDS011;44912;52.754;5.994;2023-04-06T00:17:48;11.00;;;7.35;;
59127;SDS011;44912;52.754;5.994;2023-04-06T00:20:13;11.57;;;7.50;;
59127;SDS011;44912;52.754;5.994;2023-04-06T00:22:39;11.15;;;7.25;;
59127;SDS011;44912;52.754;5.994;2023-04-06T00:25:05;11.15;;;7.15;;
59127;SDS011;44912;52.754;5.994;2023-04-06T00:27:31;11.27;;;7.40;;
59127;SDS011;44912;52.754;5.994;2023-04-06T00:29:56;13.00;;;8.32;;
59127;SDS011;44912;52.754;5.994;2023-04-06T00:32:22;10.77;;;6.95;;
59127;SDS011;44912;52.754;5.994;2023-04-06T00:34:47;10.82;;;7.72;;
59127;SDS011;44912;52.754;5.994;2023-04-06T00:37:13;12.27;;;7.90;;
59127;SDS011;44912;52.754;5.994;2023-04-06T00:39:39;12.63;;;7.47;;
59127;SDS011;44912;52.754;5.994;2023-04-06T00:42:07;11.10;;;7.65;;
59127;SDS011;44912;52.754;5.994;2023-04-06T00:44:38;11.82;;;7.88;;
59127;SDS011;44912;52.754;5.994;2023-04-06T00:47:07;11.50;;;7.55;;
59127;SDS011;44912;52.754;5.994;2023-04-06T00:49:33;10.60;;;7.75;;
59127;SDS011;44912;52.754;5.994;2023-04-06T00:51:59;11.60;;;7.57;;
59127;SDS011;44912;52.754;5.994;2023-04-06T00:54:26;10.77;;;7.65;;
59127;SDS011;44912;52.754;5.994;2023-04-06T00:56:55;11.95;;;7.70;;
59127;SDS011;44912;52.754;5.994;2023-04-06T00:59:21;16.05;;;8.25;;
59127;SDS011;44912;52.754;5.994;2023-04-06T01:01:47;11.98;;;7.63;;
59127;SDS011;44912;52.754;5.994;2023-04-06T01:04:13;11.77;;;7.85;;
59127;SDS011;44912;52.754;5.994;2023-04-06T01:06:38;12.43;;;7.70;;
59127;SDS011;44912;52.754;5.994;2023-04-06T01:09:05;12.15;;;7.70;;
59127;SDS011;44912;52.754;5.994;2023-04-06T01:11:30;10.45;;;7.63;;
59127;SDS011;44912;52.754;5.994;2023-04-06T01:13:56;12.65;;;7.68;;
59127;SDS011;44912;52.754;5.994;2023-04-06T01:16:21;10.85;;;7.55;;
59127;SDS011;44912;52.754;5.994;2023-04-06T01:18:47;12.93;;;8.43;;
59127;SDS011;44912;52.754;5.994;2023-04-06T01:21:13;13.25;;;8.63;;
59127;SDS011;44912;52.754;5.994;2023-04-06T01:23:46;15.55;;;9.00;;
59127;SDS011;44912;52.754;5.994;2023-04-06T01:26:12;14.13;;;8.43;;
59127;SDS011;44912;52.754;5.994;2023-04-06T01:28:38;11.38;;;7.55;;
59127;SDS011;44912;52.754;5.994;2023-04-06T01:31:06;12.35;;;9.10;;
59127;SDS011;44912;52.754;5.994;2023-04-06T01:33:32;10.52;;;7.75;;
59127;SDS011;44912;52.754;5.994;2023-04-06T01:35:58;13.32;;;8.30;;
59127;SDS011;44912;52.754;5.994;2023-04-06T01:38:24;11.73;;;8.30;;
59127;SDS011;44912;52.754;5.994;2023-04-06T01:40:50;14.73;;;8.20;;
59127;SDS011;44912;52.754;5.994;2023-04-06T01:43:16;12.20;;;8.38;;
59127;SDS011;44912;52.754;5.994;2023-04-06T01:45:41;12.82;;;8.55;;
59127;SDS011;44912;52.754;5.994;2023-04-06T01:48:07;11.45;;;8.20;;
59127;SDS011;44912;52.754;5.994;2023-04-06T01:50:33;11.35;;;8.35;;
59127;SDS011;44912;52.754;5.994;2023-04-06T01:52:58;12.85;;;9.00;;
59127;SDS011;44912;52.754;5.994;2023-04-06T01:55:24;13.40;;;9.00;;
59127;SDS011;44912;52.754;5.994;2023-04-06T01:57:49;14.52;;;9.40;;
59127;SDS011;44912;52.754;5.994;2023-04-06T02:00:15;11.88;;;8.88;;
59127;SDS011;44912;52.754;5.994;2023-04-06T02:02:41;13.45;;;8.90;;
59127;SDS011;44912;52.754;5.994;2023-04-06T02:05:07;11.63;;;8.57;;
59127;SDS011;44912;52.754;5.994;2023-04-06T02:07:33;12.65;;;8.73;;
59127;SDS011;44912;52.754;5.994;2023-04-06T02:09:58;13.95;;;9.10;;
59127;SDS011;44912;52.754;5.994;2023-04-06T02:12:24;13.23;;;8.85;;
59127;SDS011;44912;52.754;5.994;2023-04-06T02:14:49;12.30;;;8.50;;
59127;SDS011;44912;52.754;5.994;2023-04-06T02:17:15;14.45;;;9.10;;
59127;SDS011;44912;52.754;5.994;2023-04-06T02:19:40;12.30;;;8.68;;
59127;SDS011;44912;52.754;5.994;2023-04-06T02:22:06;13.13;;;8.90;;
59127;SDS011;44912;52.754;5.994;2023-04-06T02:24:32;13.18;;;8.57;;
59127;SDS011;44912;52.754;5.994;2023-04-06T02:26:57;11.63;;;8.48;;
59127;SDS011;44912;52.754;5.994;2023-04-06T02:29:23;12.82;;;9.27;;
59127;SDS011;44912;52.754;5.994;2023-04-06T02:31:49;12.95;;;9.15;;
59127;SDS011;44912;52.754;5.994;2023-04-06T02:34:14;11.55;;;8.57;;
59127;SDS011;44912;52.754;5.994;2023-04-06T02:36:46;12.48;;;9.25;;
59127;SDS011;44912;52.754;5.994;2023-04-06T02:39:12;13.13;;;9.10;;
59127;SDS011;44912;52.754;5.994;2023-04-06T02:41:38;13.45;;;9.43;;
59127;SDS011;44912;52.754;5.994;2023-04-06T02:44:06;13.40;;;9.40;;
59127;SDS011;44912;52.754;5.994;2023-04-06T02:46:33;15.55;;;10.05;;
59127;SDS011;44912;52.754;5.994;2023-04-06T02:48:59;13.35;;;9.45;;
59127;SDS011;44912;52.754;5.994;2023-04-06T02:51:25;13.02;;;9.05;;
59127;SDS011;44912;52.754;5.994;2023-04-06T02:53:51;16.45;;;10.40;;
59127;SDS011;44912;52.754;5.994;2023-04-06T02:56:17;13.80;;;10.10;;
59127;SDS011;44912;52.754;5.994;2023-04-06T02:58:43;14.48;;;10.30;;
59127;SDS011;44912;52.754;5.994;2023-04-06T03:01:08;14.57;;;10.60;;
59127;SDS011;44912;52.754;5.994;2023-04-06T03:03:34;13.00;;;9.68;;
59127;SDS011;44912;52.754;5.994;2023-04-06T03:05:59;13.45;;;9.88;;
59127;SDS011;44912;52.754;5.994;2023-04-06T03:08:25;16.23;;;10.20;;
59127;SDS011;44912;52.754;5.994;2023-04-06T03:10:50;12.95;;;9.80;;
59127;SDS011;44912;52.754;5.994;2023-04-06T03:13:16;13.93;;;9.93;;
59127;SDS011;44912;52.754;5.994;2023-04-06T03:15:42;14.43;;;10.38;;
59127;SDS011;44912;52.754;5.994;2023-04-06T03:18:07;14.15;;;10.50;;
59127;SDS011;44912;52.754;5.994;2023-04-06T03:20:33;13.38;;;10.27;;
59127;SDS011;44912;52.754;5.994;2023-04-06T03:22:58;16.60;;;9.98;;
59127;SDS011;44912;52.754;5.994;2023-04-06T03:25:24;16.25;;;10.70;;
59127;SDS011;44912;52.754;5.994;2023-04-06T03:27:50;15.10;;;10.63;;
59127;SDS011;44912;52.754;5.994;2023-04-06T03:30:15;14.02;;;10.18;;
59127;SDS011;44912;52.754;5.994;2023-04-06T03:32:42;16.85;;;10.65;;
59127;SDS011;44912;52.754;5.994;2023-04-06T03:35:09;15.40;;;9.93;;
59127;SDS011;44912;52.754;5.994;2023-04-06T03:37:35;14.93;;;10.32;;
59127;SDS011;44912;52.754;5.994;2023-04-06T03:40:00;14.73;;;10.27;;
59127;SDS011;44912;52.754;5.994;2023-04-06T03:42:26;13.75;;;10.68;;
59127;SDS011;44912;52.754;5.994;2023-04-06T03:44:52;15.25;;;10.13;;
59127;SDS011;44912;52.754;5.994;2023-04-06T03:47:17;14.70;;;10.88;;
59127;SDS011;44912;52.754;5.994;2023-04-06T03:49:43;13.25;;;10.02;;
59127;SDS011;44912;52.754;5.994;2023-04-06T03:52:09;17.85;;;10.23;;
59127;SDS011;44912;52.754;5.994;2023-04-06T03:54:34;14.43;;;10.18;;
59127;SDS011;44912;52.754;5.994;2023-04-06T03:57:01;14.05;;;10.45;;
59127;SDS011;44912;52.754;5.994;2023-04-06T03:59:26;15.30;;;10.38;;
59127;SDS011;44912;52.754;5.994;2023-04-06T04:01:52;19.90;;;10.30;;
59127;SDS011;44912;52.754;5.994;2023-04-06T04:04:18;14.25;;;9.93;;
59127;SDS011;44912;52.754;5.994;2023-04-06T04:06:43;15.02;;;10.52;;
59127;SDS011;44912;52.754;5.994;2023-04-06T04:09:09;13.95;;;10.25;;
59127;SDS011;44912;52.754;5.994;2023-04-06T04:11:34;15.85;;;10.65;;
59127;SDS011;44912;52.754;5.994;2023-04-06T04:14:00;15.30;;;10.75;;
59127;SDS011;44912;52.754;5.994;2023-04-06T04:16:26;17.83;;;10.32;;
59127;SDS011;44912;52.754;5.994;2023-04-06T04:18:51;14.77;;;10.93;;
59127;SDS011;44912;52.754;5.994;2023-04-06T04:21:17;16.48;;;10.38;;
59127;SDS011;44912;52.754;5.994;2023-04-06T04:23:42;13.73;;;9.98;;
59127;SDS011;44912;52.754;5.994;2023-04-06T04:26:08;14.80;;;10.23;;
59127;SDS011;44912;52.754;5.994;2023-04-06T04:28:33;16.35;;;11.32;;
59127;SDS011;44912;52.754;5.994;2023-04-06T04:30:59;15.05;;;10.63;;
59127;SDS011;44912;52.754;5.994;2023-04-06T04:33:25;15.88;;;11.88;;
59127;SDS011;44912;52.754;5.994;2023-04-06T04:35:50;16.52;;;11.05;;
59127;SDS011;44912;52.754;5.994;2023-04-06T04:38:16;15.13;;;10.82;;
59127;SDS011;44912;52.754;5.994;2023-04-06T04:40:41;15.63;;;10.85;;
59127;SDS011;44912;52.754;5.994;2023-04-06T04:43:07;14.93;;;11.43;;
59127;SDS011;44912;52.754;5.994;2023-04-06T04:45:32;14.35;;;10.68;;
59127;SDS011;44912;52.754;5.994;2023-04-06T04:47:58;17.80;;;11.63;;
59127;SDS011;44912;52.754;5.994;2023-04-06T04:50:24;16.95;;;10.93;;
59127;SDS011;44912;52.754;5.994;2023-04-06T04:52:50;16.17;;;11.55;;
59127;SDS011;44912;52.754;5.994;2023-04-06T04:55:15;16.10;;;11.38;;
59127;SDS011;44912;52.754;5.994;2023-04-06T04:57:42;16.58;;;11.70;;
59127;SDS011;44912;52.754;5.994;2023-04-06T05:00:08;16.80;;;11.15;;
59127;SDS011;44912;52.754;5.994;2023-04-06T05:02:33;14.88;;;11.43;;
59127;SDS011;44912;52.754;5.994;2023-04-06T05:04:59;15.85;;;11.38;;
59127;SDS011;44912;52.754;5.994;2023-04-06T05:07:25;16.38;;;11.13;;
59127;SDS011;44912;52.754;5.994;2023-04-06T05:09:50;15.65;;;10.63;;
59127;SDS011;44912;52.754;5.994;2023-04-06T05:12:16;15.95;;;11.50;;
59127;SDS011;44912;52.754;5.994;2023-04-06T05:14:41;15.85;;;11.00;;
59127;SDS011;44912;52.754;5.994;2023-04-06T05:17:07;15.52;;;10.70;;
59127;SDS011;44912;52.754;5.994;2023-04-06T05:19:33;17.17;;;11.95;;
59127;SDS011;44912;52.754;5.994;2023-04-06T05:21:58;16.35;;;11.65;;
59127;SDS011;44912;52.754;5.994;2023-04-06T05:24:24;18.00;;;11.80;;
59127;SDS011;44912;52.754;5.994;2023-04-06T05:26:50;15.65;;;11.30;;
59127;SDS011;44912;52.754;5.994;2023-04-06T05:29:16;14.50;;;11.57;;
59127;SDS011;44912;52.754;5.994;2023-04-06T05:31:42;16.38;;;11.45;;
59127;SDS011;44912;52.754;5.994;2023-04-06T05:34:07;15.52;;;11.38;;
59127;SDS011;44912;52.754;5.994;2023-04-06T05:36:34;16.98;;;11.18;;
59127;SDS011;44912;52.754;5.994;2023-04-06T05:39:00;17.88;;;12.00;;
59127;SDS011;44912;52.754;5.994;2023-04-06T05:41:25;16.23;;;11.98;;
59127;SDS011;44912;52.754;5.994;2023-04-06T05:43:51;16.80;;;11.65;;
59127;SDS011;44912;52.754;5.994;2023-04-06T05:46:16;16.20;;;11.55;;
59127;SDS011;44912;52.754;5.994;2023-04-06T05:48:43;16.40;;;11.07;;
59127;SDS011;44912;52.754;5.994;2023-04-06T05:51:10;17.55;;;12.05;;
59127;SDS011;44912;52.754;5.994;2023-04-06T05:53:35;17.15;;;11.45;;
59127;SDS011;44912;52.754;5.994;2023-04-06T05:56:01;17.77;;;11.52;;
59127;SDS011;44912;52.754;5.994;2023-04-06T05:58:27;15.88;;;11.40;;
59127;SDS011;44912;52.754;5.994;2023-04-06T06:00:59;16.67;;;11.35;;
59127;SDS011;44912;52.754;5.994;2023-04-06T06:03:26;15.85;;;11.77;;
59127;SDS011;44912;52.754;5.994;2023-04-06T06:05:51;19.63;;;12.25;;
59127;SDS011;44912;52.754;5.994;2023-04-06T06:08:17;17.08;;;11.75;;
59127;SDS011;44912;52.754;5.994;2023-04-06T06:10:42;14.82;;;11.02;;
59127;SDS011;44912;52.754;5.994;2023-04-06T06:13:08;17.40;;;11.45;;
59127;SDS011;44912;52.754;5.994;2023-04-06T06:15:34;16.83;;;11.68;;
59127;SDS011;44912;52.754;5.994;2023-04-06T06:18:00;17.13;;;11.68;;
59127;SDS011;44912;52.754;5.994;2023-04-06T06:20:26;17.50;;;11.27;;
59127;SDS011;44912;52.754;5.994;2023-04-06T06:22:52;18.50;;;11.73;;
59127;SDS011;44912;52.754;5.994;2023-04-06T06:25:18;15.25;;;11.07;;
59127;SDS011;44912;52.754;5.994;2023-04-06T06:27:43;19.10;;;12.73;;
59127;SDS011;44912;52.754;5.994;2023-04-06T06:30:09;17.98;;;12.57;;
59127;SDS011;44912;52.754;5.994;2023-04-06T06:32:35;15.43;;;11.15;;
59127;SDS011;44912;52.754;5.994;2023-04-06T06:35:01;17.52;;;11.48;;
59127;SDS011;44912;52.754;5.994;2023-04-06T06:37:26;19.75;;;12.27;;
59127;SDS011;44912;52.754;5.994;2023-04-06T06:39:52;15.38;;;12.00;;
59127;SDS011;44912;52.754;5.994;2023-04-06T06:42:17;16.77;;;11.93;;
59127;SDS011;44912;52.754;5.994;2023-04-06T06:44:43;17.45;;;11.80;;
59127;SDS011;44912;52.754;5.994;2023-04-06T06:47:08;16.10;;;11.90;;
59127;SDS011;44912;52.754;5.994;2023-04-06T06:49:34;18.05;;;12.60;;
59127;SDS011;44912;52.754;5.994;2023-04-06T06:52:00;19.20;;;12.23;;
59127;SDS011;44912;52.754;5.994;2023-04-06T06:54:25;16.80;;;12.30;;
59127;SDS011;44912;52.754;5.994;2023-04-06T06:56:51;17.13;;;11.55;;
59127;SDS011;44912;52.754;5.994;2023-04-06T06:59:17;19.65;;;12.07;;
59127;SDS011;44912;52.754;5.994;2023-04-06T07:01:42;19.05;;;13.02;;
59127;SDS011;44912;52.754;5.994;2023-04-06T07:04:08;16.63;;;11.65;;
59127;SDS011;44912;52.754;5.994;2023-04-06T07:06:34;18.75;;;12.60;;
59127;SDS011;44912;52.754;5.994;2023-04-06T07:09:00;17.95;;;11.52;;
59127;SDS011;44912;52.754;5.994;2023-04-06T07:11:28;17.13;;;11.85;;
59127;SDS011;44912;52.754;5.994;2023-04-06T07:13:54;18.42;;;11.73;;
59127;SDS011;44912;52.754;5.994;2023-04-06T07:16:19;18.30;;;11.85;;
59127;SDS011;44912;52.754;5.994;2023-04-06T07:18:45;18.58;;;11.82;;
59127;SDS011;44912;52.754;5.994;2023-04-06T07:21:10;16.85;;;12.00;;
59127;SDS011;44912;52.754;5.994;2023-04-06T07:23:36;17.45;;;11.32;;
59127;SDS011;44912;52.754;5.994;2023-04-06T07:26:02;16.33;;;11.82;;
59127;SDS011;44912;52.754;5.994;2023-04-06T07:28:27;16.83;;;11.75;;
59127;SDS011;44912;52.754;5.994;2023-04-06T07:30:53;17.80;;;11.98;;
59127;SDS011;44912;52.754;5.994;2023-04-06T07:33:19;18.35;;;12.20;;
59127;SDS011;44912;52.754;5.994;2023-04-06T07:35:45;20.42;;;12.15;;
59127;SDS011;44912;52.754;5.994;2023-04-06T07:38:10;18.77;;;12.32;;
59127;SDS011;44912;52.754;5.994;2023-04-06T07:40:36;19.23;;;13.38;;
59127;SDS011;44912;52.754;5.994;2023-04-06T07:43:02;20.13;;;13.18;;
59127;SDS011;44912;52.754;5.994;2023-04-06T07:45:28;20.67;;;13.20;;
59127;SDS011;44912;52.754;5.994;2023-04-06T07:47:53;22.00;;;14.38;;
59127;SDS011;44912;52.754;5.994;2023-04-06T07:50:19;22.20;;;13.40;;
59127;SDS011;44912;52.754;5.994;2023-04-06T07:52:45;21.48;;;12.95;;
59127;SDS011;44912;52.754;5.994;2023-04-06T07:55:10;18.23;;;12.82;;
59127;SDS011;44912;52.754;5.994;2023-04-06T07:57:36;18.20;;;12.10;;
59127;SDS011;44912;52.754;5.994;2023-04-06T08:00:02;18.10;;;12.60;;
59127;SDS011;44912;52.754;5.994;2023-04-06T08:02:28;18.15;;;12.23;;
59127;SDS011;44912;52.754;5.994;2023-04-06T08:04:54;19.20;;;12.65;;
59127;SDS011;44912;52.754;5.994;2023-04-06T08:07:20;21.13;;;12.68;;
59127;SDS011;44912;52.754;5.994;2023-04-06T08:09:46;17.63;;;12.10;;
59127;SDS011;44912;52.754;5.994;2023-04-06T08:12:12;18.30;;;12.15;;
59127;SDS011;44912;52.754;5.994;2023-04-06T08:14:37;18.98;;;12.68;;
59127;SDS011;44912;52.754;5.994;2023-04-06T08:17:03;19.35;;;13.05;;
59127;SDS011;44912;52.754;5.994;2023-04-06T08:19:29;19.48;;;12.98;;
59127;SDS011;44912;52.754;5.994;2023-04-06T08:21:54;17.65;;;12.45;;
59127;SDS011;44912;52.754;5.994;2023-04-06T08:24:20;17.92;;;12.38;;
59127;SDS011;44912;52.754;5.994;2023-04-06T08:26:45;19.25;;;12.90;;
59127;SDS011;44912;52.754;5.994;2023-04-06T08:29:11;18.67;;;13.00;;
59127;SDS011;44912;52.754;5.994;2023-04-06T08:31:37;18.45;;;12.73;;
59127;SDS011;44912;52.754;5.994;2023-04-06T08:34:03;18.73;;;12.43;;
59127;SDS011;44912;52.754;5.994;2023-04-06T08:36:29;18.35;;;13.27;;
59127;SDS011;44912;52.754;5.994;2023-04-06T08:38:55;17.35;;;12.63;;
59127;SDS011;44912;52.754;5.994;2023-04-06T08:41:21;19.73;;;14.40;;
59127;SDS011;44912;52.754;5.994;2023-04-06T08:43:47;19.50;;;12.95;;
59127;SDS011;44912;52.754;5.994;2023-04-06T08:46:15;18.10;;;13.00;;
59127;SDS011;44912;52.754;5.994;2023-04-06T08:48:41;20.15;;;13.30;;
59127;SDS011;44912;52.754;5.994;2023-04-06T08:51:08;20.67;;;13.77;;
59127;SDS011;44912;52.754;5.994;2023-04-06T08:53:34;21.75;;;14.63;;
59127;SDS011;44912;52.754;5.994;2023-04-06T08:56:00;19.35;;;13.52;;
59127;SDS011;44912;52.754;5.994;2023-04-06T08:58:28;18.00;;;14.15;;
59127;SDS011;44912;52.754;5.994;2023-04-06T09:00:57;19.88;;;14.00;;
59127;SDS011;44912;52.754;5.994;2023-04-06T09:03:24;21.40;;;14.15;;
59127;SDS011;44912;52.754;5.994;2023-04-06T09:05:52;20.58;;;14.13;;
59127;SDS011;44912;52.754;5.994;2023-04-06T09:08:18;21.25;;;14.48;;
59127;SDS011;44912;52.754;5.994;2023-04-06T09:10:44;22.38;;;15.25;;
59127;SDS011;44912;52.754;5.994;2023-04-06T09:13:10;20.25;;;14.48;;
59127;SDS011;44912;52.754;5.994;2023-04-06T09:15:36;21.30;;;14.55;;
59127;SDS011;44912;52.754;5.994;2023-04-06T09:18:02;19.98;;;15.13;;
59127;SDS011;44912;52.754;5.994;2023-04-06T09:20:28;19.27;;;14.32;;
59127;SDS011;44912;52.754;5.994;2023-04-06T09:22:54;20.55;;;15.35;;
59127;SDS011;44912;52.754;5.994;2023-04-06T09:25:21;20.50;;;15.15;;
59127;SDS011;44912;52.754;5.994;2023-04-06T09:28:04;21.38;;;14.70;;
59127;SDS011;44912;52.754;5.994;2023-04-06T09:30:31;22.05;;;14.95;;
59127;SDS011;44912;52.754;5.994;2023-04-06T09:32:57;25.13;;;15.35;;
59127;SDS011;44912;52.754;5.994;2023-04-06T09:35:24;22.20;;;15.35;;
59127;SDS011;44912;52.754;5.994;2023-04-06T09:37:51;21.73;;;15.32;;
59127;SDS011;44912;52.754;5.994;2023-04-06T09:40:18;23.73;;;15.25;;
59127;SDS011;44912;52.754;5.994;2023-04-06T09:42:45;23.73;;;15.80;;
59127;SDS011;44912;52.754;5.994;2023-04-06T09:45:12;22.77;;;15.73;;
59127;SDS011;44912;52.754;5.994;2023-04-06T09:47:38;20.10;;;14.15;;
59127;SDS011;44912;52.754;5.994;2023-04-06T09:50:06;23.75;;;16.35;;
59127;SDS011;44912;52.754;5.994;2023-04-06T09:52:41;25.75;;;16.20;;
59127;SDS011;44912;52.754;5.994;2023-04-06T09:55:12;22.77;;;15.50;;
59127;SDS011;44912;52.754;5.994;2023-04-06T09:58:05;22.30;;;15.73;;
59127;SDS011;44912;52.754;5.994;2023-04-06T10:00:32;21.92;;;15.52;;
59127;SDS011;44912;52.754;5.994;2023-04-06T10:05:46;21.75;;;14.60;;
59127;SDS011;44912;52.754;5.994;2023-04-06T10:08:20;25.07;;;16.00;;
59127;SDS011;44912;52.754;5.994;2023-04-06T10:10:49;20.55;;;14.55;;
59127;SDS011;44912;52.754;5.994;2023-04-06T10:13:16;20.92;;;14.52;;
59127;SDS011;44912;52.754;5.994;2023-04-06T10:15:43;21.27;;;15.20;;
59127;SDS011;44912;52.754;5.994;2023-04-06T10:18:09;21.13;;;14.73;;
59127;SDS011;44912;52.754;5.994;2023-04-06T10:25:51;21.00;;;14.32;;
59127;SDS011;44912;52.754;5.994;2023-04-06T10:28:21;23.08;;;15.23;;
59127;SDS011;44912;52.754;5.994;2023-04-06T10:30:47;22.92;;;15.18;;
59127;SDS011;44912;52.754;5.994;2023-04-06T10:33:17;22.75;;;15.60;;
59127;SDS011;44912;52.754;5.994;2023-04-06T10:35:44;22.00;;;14.48;;
59127;SDS011;44912;52.754;5.994;2023-04-06T10:38:10;20.35;;;14.35;;
59127;SDS011;44912;52.754;5.994;2023-04-06T10:40:39;22.00;;;14.82;;
59127;SDS011;44912;52.754;5.994;2023-04-06T10:43:11;21.48;;;14.80;;
59127;SDS011;44912;52.754;5.994;2023-04-06T10:45:38;23.83;;;15.88;;
59127;SDS011;44912;52.754;5.994;2023-04-06T10:48:17;24.42;;;16.05;;
59127;SDS011;44912;52.754;5.994;2023-04-06T10:50:44;23.55;;;15.57;;
59127;SDS011;44912;52.754;5.994;2023-04-06T10:53:19;24.15;;;16.02;;
59127;SDS011;44912;52.754;5.994;2023-04-06T10:55:46;21.15;;;15.63;;
59127;SDS011;44912;52.754;5.994;2023-04-06T10:58:14;22.50;;;16.40;;
59127;SDS011;44912;52.754;5.994;2023-04-06T11:00:46;20.55;;;14.82;;
59127;SDS011;44912;52.754;5.994;2023-04-06T11:03:13;24.05;;;15.48;;
59127;SDS011;44912;52.754;5.994;2023-04-06T11:05:43;23.17;;;15.40;;
59127;SDS011;44912;52.754;5.994;2023-04-06T11:08:22;24.05;;;15.77;;
59127;SDS011;44912;52.754;5.994;2023-04-06T11:11:05;23.38;;;16.42;;
59127;SDS011;44912;52.754;5.994;2023-04-06T11:13:39;22.90;;;15.70;;
59127;SDS011;44912;52.754;5.994;2023-04-06T11:16:05;21.37;;;15.77;;
59127;SDS011;44912;52.754;5.994;2023-04-06T11:18:31;24.05;;;16.67;;
59127;SDS011;44912;52.754;5.994;2023-04-06T11:20:57;24.15;;;16.65;;
59127;SDS011;44912;52.754;5.994;2023-04-06T11:23:23;24.17;;;15.73;;
59127;SDS011;44912;52.754;5.994;2023-04-06T11:25:51;22.02;;;15.88;;
59127;SDS011;44912;52.754;5.994;2023-04-06T11:28:17;23.23;;;14.77;;
59127;SDS011;44912;52.754;5.994;2023-04-06T11:30:43;27.48;;;15.57;;
59127;SDS011;44912;52.754;5.994;2023-04-06T11:33:10;23.15;;;16.52;;
59127;SDS011;44912;52.754;5.994;2023-04-06T11:35:35;22.13;;;16.33;;
59127;SDS011;44912;52.754;5.994;2023-04-06T11:38:02;25.70;;;16.95;;
59127;SDS011;44912;52.754;5.994;2023-04-06T11:40:29;22.40;;;16.33;;
59127;SDS011;44912;52.754;5.994;2023-04-06T11:42:55;24.77;;;16.65;;
59127;SDS011;44912;52.754;5.994;2023-04-06T11:45:21;24.75;;;17.35;;
59127;SDS011;44912;52.754;5.994;2023-04-06T11:47:55;23.55;;;16.80;;
59127;SDS011;44912;52.754;5.994;2023-04-06T11:50:24;22.55;;;16.35;;
59127;SDS011;44912;52.754;5.994;2023-04-06T11:52:57;22.38;;;15.85;;
59127;SDS011;44912;52.754;5.994;2023-04-06T11:55:25;23.45;;;15.70;;
59127;SDS011;44912;52.754;5.994;2023-04-06T11:57:51;23.27;;;14.43;;
59127;SDS011;44912;52.754;5.994;2023-04-06T12:00:17;16.58;;;9.90;;
59127;SDS011;44912;52.754;5.994;2023-04-06T12:02:45;16.30;;;9.93;;
59127;SDS011;44912;52.754;5.994;2023-04-06T12:05:11;16.40;;;11.10;;
59127;SDS011;44912;52.754;5.994;2023-04-06T12:07:37;19.48;;;11.98;;
59127;SDS011;44912;52.754;5.994;2023-04-06T12:10:03;17.80;;;12.52;;
59127;SDS011;44912;52.754;5.994;2023-04-06T12:12:29;20.08;;;12.90;;
59127;SDS011;44912;52.754;5.994;2023-04-06T12:14:56;23.67;;;13.45;;
59127;SDS011;44912;52.754;5.994;2023-04-06T12:17:21;19.08;;;10.95;;
59127;SDS011;44912;52.754;5.994;2023-04-06T12:19:47;17.65;;;11.88;;
59127;SDS011;44912;52.754;5.994;2023-04-06T12:22:12;19.05;;;12.15;;
59127;SDS011;44912;52.754;5.994;2023-04-06T12:24:38;18.52;;;11.85;;
59127;SDS011;44912;52.754;5.994;2023-04-06T12:27:04;18.65;;;11.77;;
59127;SDS011;44912;52.754;5.994;2023-04-06T12:29:29;19.00;;;11.25;;
59127;SDS011;44912;52.754;5.994;2023-04-06T12:31:55;18.50;;;11.70;;
59127;SDS011;44912;52.754;5.994;2023-04-06T12:34:21;16.35;;;11.60;;
59127;SDS011;44912;52.754;5.994;2023-04-06T12:36:47;19.08;;;12.43;;
59127;SDS011;44912;52.754;5.994;2023-04-06T12:39:12;20.55;;;10.68;;
59127;SDS011;44912;52.754;5.994;2023-04-06T12:41:38;19.00;;;11.35;;
59127;SDS011;44912;52.754;5.994;2023-04-06T12:44:06;17.10;;;12.35;;
59127;SDS011;44912;52.754;5.994;2023-04-06T12:46:32;15.77;;;11.43;;
59127;SDS011;44912;52.754;5.994;2023-04-06T12:48:58;15.05;;;10.52;;
59127;SDS011;44912;52.754;5.994;2023-04-06T12:51:24;18.05;;;11.23;;
59127;SDS011;44912;52.754;5.994;2023-04-06T12:53:52;18.65;;;11.00;;
59127;SDS011;44912;52.754;5.994;2023-04-06T12:56:18;18.13;;;11.05;;
59127;SDS011;44912;52.754;5.994;2023-04-06T12:58:44;14.82;;;9.90;;
59127;SDS011;44912;52.754;5.994;2023-04-06T13:01:10;17.95;;;11.40;;
59127;SDS011;44912;52.754;5.994;2023-04-06T13:03:42;18.02;;;10.90;;
59127;SDS011;44912;52.754;5.994;2023-04-06T13:06:08;20.33;;;12.13;;
59127;SDS011;44912;52.754;5.994;2023-04-06T13:08:34;17.02;;;11.63;;
59127;SDS011;44912;52.754;5.994;2023-04-06T13:11:02;16.77;;;11.35;;
59127;SDS011;44912;52.754;5.994;2023-04-06T13:13:28;15.32;;;11.25;;
59127;SDS011;44912;52.754;5.994;2023-04-06T13:15:58;16.90;;;11.18;;
59127;SDS011;44912;52.754;5.994;2023-04-06T13:18:26;16.88;;;11.18;;
59127;SDS011;44912;52.754;5.994;2023-04-06T13:20:51;15.77;;;11.02;;
59127;SDS011;44912;52.754;5.994;2023-04-06T13:23:17;16.73;;;11.48;;
59127;SDS011;44912;52.754;5.994;2023-04-06T13:25:42;18.52;;;12.35;;
59127;SDS011;44912;52.754;5.994;2023-04-06T13:28:08;17.13;;;11.15;;
59127;SDS011;44912;52.754;5.994;2023-04-06T13:30:34;16.33;;;12.35;;
59127;SDS011;44912;52.754;5.994;2023-04-06T13:33:00;16.92;;;11.90;;
59127;SDS011;44912;52.754;5.994;2023-04-06T13:35:26;18.27;;;12.73;;
59127;SDS011;44912;52.754;5.994;2023-04-06T13:37:52;18.23;;;12.70;;
59127;SDS011;44912;52.754;5.994;2023-04-06T13:40:18;17.65;;;12.48;;
59127;SDS011;44912;52.754;5.994;2023-04-06T13:42:44;18.55;;;12.45;;
59127;SDS011;44912;52.754;5.994;2023-04-06T13:45:11;21.73;;;14.38;;
59127;SDS011;44912;52.754;5.994;2023-04-06T13:47:37;18.90;;;13.35;;
59127;SDS011;44912;52.754;5.994;2023-04-06T13:50:02;18.67;;;13.73;;
59127;SDS011;44912;52.754;5.994;2023-04-06T13:52:29;19.40;;;14.32;;
59127;SDS011;44912;52.754;5.994;2023-04-06T13:54:55;20.58;;;15.25;;
59127;SDS011;44912;52.754;5.994;2023-04-06T13:57:28;20.30;;;14.95;;
59127;SDS011;44912;52.754;5.994;2023-04-06T13:59:54;22.80;;;16.95;;
59127;SDS011;44912;52.754;5.994;2023-04-06T14:02:20;24.65;;;18.33;;
59127;SDS011;44912;52.754;5.994;2023-04-06T14:04:51;21.95;;;15.73;;
59127;SDS011;44912;52.754;5.994;2023-04-06T14:07:17;21.17;;;16.20;;
59127;SDS011;44912;52.754;5.994;2023-04-06T14:09:42;22.42;;;16.73;;
59127;SDS011;44912;52.754;5.994;2023-04-06T14:12:08;20.55;;;15.95;;
59127;SDS011;44912;52.754;5.994;2023-04-06T14:14:39;26.83;;;17.33;;
59127;SDS011;44912;52.754;5.994;2023-04-06T14:17:05;22.75;;;16.58;;
59127;SDS011;44912;52.754;5.994;2023-04-06T14:19:31;22.13;;;16.48;;
59127;SDS011;44912;52.754;5.994;2023-04-06T14:21:56;21.63;;;16.65;;
59127;SDS011;44912;52.754;5.994;2023-04-06T14:24:22;27.58;;;19.15;;
59127;SDS011;44912;52.754;5.994;2023-04-06T14:26:48;23.60;;;17.73;;